Fort Madison, IA (52627)

12:01 AM CDT on April 27, 2017 (GMT -0500)
River Bend Condos | | Change Station
Active Advisory: Flood Warning

Elev 535 ft 40.63 °N, 91.37 °W | Updated 17 seconds ago

Light Rain
Light Rain
45.0 °F
Feels Like 41 °F
N
7.0
Wind Variable Wind from SW

Today
High -- | Low -- °F
--% Chance of Precip.
Yesterday
High -- | Low -- °F
Precip. -- in
Pressure 29.50 in
Visibility 7.0 miles
Clouds Overcast 2000 ft
Windchill 41 °F
Dew Point 43 °F
Humidity 93%
Rainfall 0.00 in
Snow Depth Not available.
6:08 AM 7:57 PM
New Moon, 1% visible
METAR KFSW 270455Z AUTO 33015G19KT 7SM -RA OVC020 07/06 A2950 RMK AO2 P0009
Pressure 29.50 in
Visibility 7.0 miles
Clouds Overcast 2000 ft
Windchill 41 °F
Dew Point 43 °F
Humidity 93%
Rainfall 0.00 in
Snow Depth Not available.
6:08 AM 7:57 PM
New Moon, 1% visible
METAR KFSW 270455Z AUTO 33015G19KT 7SM -RA OVC020 07/06 A2950 RMK AO2 P0009

Get Your Daily Forecast Email!

Thanks for signing up!

Be on the lookout for a verification email in your inbox.

You'll start receiving severe weather alerts in your inbox..

×

10-Day Weather Forecast

Almanac

Astronomy

Apr. 27, 2017 Rise Set
Actual Time
Civil Twilight
Nautical Twilight
Astronomical Twilight
Moon
Length of Visible Light
Length of Day
Tomorrow will be .
, % of the Moon is Illuminated

Today's Extremes

State Highs State Lows

Community

WunderPhotos

WunderBlog® & News

Nearby

Air Quality

  Air Quality AQ Index Pollutant
Not available.

Snow Depth

Station Depth Elevation

Earthquake Activity

City Distance Mag. Time & Date
Minimum magnitude displayed is 2.5.

Coastal Water Temperatures

Place Temperature

Stations

Nearby Weather Stations

Station Location Temp. Windchill Dew Point Humidity Wind Precip. Elev Updated Type
                   

Watches & Warnings

Flood Warning
Issued: 9:02 PM CDT Apr. 26, 2017 – National Weather Service

... Flood Warning remains in effect until further notice...

The Flood Warning continues for
the Mississippi River at Burlington.
* Until further notice.
* At 8:00 PM Wednesday the stage was 15.5 feet... and steady.
* Flood stage is 15.0 feet.
* Minor flooding is occurring and is forecast to continue.
* Forecast... remain around 15.5 feet until further notice.
* Impact... at 15.0 feet... agricultural flooding occurs.


Lat... Lon 4086 9110 4084 9105 4062 9108 4061 9142
     4067 9118